ETD701 FSIA-OMAA
Flight info
| Callsign | ETD701 |
|---|---|
| Flight time | N/A |
| Altitude | 34000 |
| Route | DULMA1B DULMA T145 GEPAX DCT IMTIP UM314 SUHIL R401 DOLFI P558 SODEX N563 NOBTO |
| Aircraft | A320/M-SDE3FGHIRWY/LB1 |
Departure
| Time | 2026-04-21 15:52 |
|---|---|
| Airport | Seychelles International Airport (FSIA) |
Arrival
| Time | N/A |
|---|---|
| Airport | Zayed International Airport (OMAA) |
| Time | Latitude | Longitude | Altitude | Speed | Heading |
|---|---|---|---|---|---|
| 2026-04-21 15:42 | -4.67025 | 55.51132 | 20 ft | 0 kts | 215° |
| 2026-04-21 15:44 | -4.67023 | 55.51134 | 20 ft | 3 kts | 216° |
| 2026-04-21 15:44 | -4.67003 | 55.51151 | 24 ft | 4 kts | 231° |
| 2026-04-21 15:44 | -4.66989 | 55.51174 | 20 ft | 4 kts | 252° |
| 2026-04-21 15:44 | -4.66985 | 55.51200 | 20 ft | 4 kts | 287° |
| 2026-04-21 15:45 | -4.66989 | 55.51210 | 20 ft | 0 kts | 305° |
| 2026-04-21 15:48 | -4.66987 | 55.51207 | 20 ft | 1 kts | 309° |
| 2026-04-21 15:48 | -4.66961 | 55.51197 | 22 ft | 7 kts | 352° |
| 2026-04-21 15:49 | -4.66901 | 55.51201 | 20 ft | 9 kts | 334° |
| 2026-04-21 15:49 | -4.66861 | 55.51146 | 20 ft | 10 kts | 303° |
| 2026-04-21 15:49 | -4.66820 | 55.51083 | 20 ft | 11 kts | 303° |
| 2026-04-21 15:49 | -4.66778 | 55.51031 | 20 ft | 7 kts | 325° |
| 2026-04-21 15:50 | -4.66763 | 55.51026 | 20 ft | 1 kts | 345° |
| 2026-04-21 15:50 | -4.66748 | 55.51025 | 20 ft | 5 kts | 4° |
| 2026-04-21 15:50 | -4.66713 | 55.51043 | 20 ft | 6 kts | 38° |
| 2026-04-21 15:50 | -4.66690 | 55.51073 | 22 ft | 3 kts | 76° |
| 2026-04-21 15:51 | -4.66696 | 55.51096 | 22 ft | 4 kts | 111° |
| 2026-04-21 15:51 | -4.66751 | 55.51183 | 23 ft | 41 kts | 123° |
| 2026-04-21 15:51 | -4.67050 | 55.51617 | 22 ft | 106 kts | 124° |
| 2026-04-21 15:51 | -4.67566 | 55.52362 | 22 ft | 153 kts | 125° |
| 2026-04-21 15:52 | -4.68213 | 55.53306 | 361 ft | 162 kts | 125° |
| 2026-04-21 15:52 | -4.68827 | 55.54197 | 970 ft | 156 kts | 123° |
| 2026-04-21 15:52 | -4.69456 | 55.55097 | 1418 ft | 159 kts | 124° |
| 2026-04-21 15:52 | -4.70101 | 55.56012 | 1817 ft | 165 kts | 124° |
| 2026-04-21 15:53 | -4.70802 | 55.57010 | 1967 ft | 185 kts | 124° |
| 2026-04-21 15:53 | -4.71579 | 55.58114 | 2113 ft | 208 kts | 124° |
| 2026-04-21 15:53 | -4.72455 | 55.59364 | 2254 ft | 232 kts | 124° |
| 2026-04-21 15:53 | -4.73231 | 55.60856 | 2476 ft | 253 kts | 99° |
| 2026-04-21 15:54 | -4.73031 | 55.62616 | 2926 ft | 263 kts | 62° |
| 2026-04-21 15:54 | -4.71797 | 55.63946 | 3580 ft | 266 kts | 27° |
| 2026-04-21 15:54 | -4.70040 | 55.64542 | 4290 ft | 269 kts | 15° |
| 2026-04-21 15:54 | -4.68359 | 55.65368 | 4990 ft | 274 kts | 40° |
| 2026-04-21 15:55 | -4.67109 | 55.66782 | 5689 ft | 276 kts | 50° |
| 2026-04-21 15:55 | -4.65884 | 55.68280 | 6400 ft | 279 kts | 50° |
| 2026-04-21 15:55 | -4.64641 | 55.69784 | 7053 ft | 282 kts | 50° |
| 2026-04-21 15:55 | -4.63382 | 55.71302 | 7695 ft | 285 kts | 50° |
| 2026-04-21 15:56 | -4.62105 | 55.72838 | 8331 ft | 288 kts | 50° |
| 2026-04-21 15:56 | -4.60811 | 55.74391 | 8962 ft | 292 kts | 50° |
| 2026-04-21 15:56 | -4.59947 | 55.75428 | 9376 ft | 294 kts | 50° |
| 2026-04-21 15:56 | -4.58936 | 55.76648 | 9804 ft | 298 kts | 51° |
| 2026-04-21 15:57 | -4.57608 | 55.78253 | 9971 ft | 300 kts | 51° |
| 2026-04-21 15:57 | -4.56243 | 55.79890 | 10011 ft | 322 kts | 50° |
| 2026-04-21 15:57 | -4.54757 | 55.81674 | 10009 ft | 345 kts | 51° |
| 2026-04-21 15:57 | -4.53190 | 55.83562 | 10011 ft | 357 kts | 51° |
| 2026-04-21 15:58 | -4.51582 | 55.85498 | 10007 ft | 359 kts | 50° |
| 2026-04-21 15:58 | -4.50000 | 55.87401 | 10017 ft | 360 kts | 50° |
| 2026-04-21 15:58 | -4.48400 | 55.89326 | 10016 ft | 360 kts | 50° |
| 2026-04-21 15:58 | -4.46806 | 55.91247 | 10020 ft | 360 kts | 51° |
| 2026-04-21 15:59 | -4.45139 | 55.93142 | 10017 ft | 360 kts | 43° |
| 2026-04-21 15:59 | -4.43143 | 55.94621 | 10025 ft | 360 kts | 29° |
| 2026-04-21 15:59 | -4.40812 | 55.95558 | 10126 ft | 363 kts | 13° |
| 2026-04-21 15:59 | -4.38320 | 55.95877 | 10657 ft | 365 kts | 0° |
| 2026-04-21 16:00 | -4.35788 | 55.95876 | 11177 ft | 367 kts | 360° |
| 2026-04-21 16:00 | -4.33232 | 55.95872 | 11706 ft | 370 kts | 360° |
| 2026-04-21 16:00 | -4.30630 | 55.95866 | 12226 ft | 372 kts | 360° |
| 2026-04-21 16:00 | -4.28025 | 55.95859 | 12747 ft | 375 kts | 360° |
| 2026-04-21 16:01 | -4.25440 | 55.95852 | 13258 ft | 377 kts | 360° |
| 2026-04-21 16:01 | -4.22826 | 55.95843 | 13761 ft | 379 kts | 360° |
| 2026-04-21 16:01 | -4.20145 | 55.95833 | 14206 ft | 382 kts | 360° |
| 2026-04-21 16:01 | -4.17499 | 55.95823 | 14630 ft | 385 kts | 360° |
| 2026-04-21 16:02 | -4.14803 | 55.95816 | 15059 ft | 388 kts | 360° |
| 2026-04-21 16:02 | -4.12087 | 55.95809 | 15484 ft | 391 kts | 360° |
| 2026-04-21 16:02 | -4.09380 | 55.95803 | 15909 ft | 394 kts | 360° |
| 2026-04-21 16:02 | -4.06614 | 55.95796 | 16352 ft | 397 kts | 360° |
| 2026-04-21 16:03 | -4.03877 | 55.95790 | 16784 ft | 400 kts | 360° |
| 2026-04-21 16:03 | -4.01088 | 55.95785 | 17227 ft | 403 kts | 360° |
| 2026-04-21 16:03 | -3.98280 | 55.95778 | 17669 ft | 406 kts | 360° |
| 2026-04-21 16:03 | -3.95442 | 55.95771 | 18110 ft | 409 kts | 360° |
| 2026-04-21 16:04 | -3.92560 | 55.95765 | 18507 ft | 412 kts | 360° |
| 2026-04-21 16:04 | -3.89701 | 55.95759 | 18924 ft | 414 kts | 360° |
| 2026-04-21 16:04 | -3.86832 | 55.95752 | 19344 ft | 416 kts | 359° |
| 2026-04-21 16:04 | -3.83925 | 55.95744 | 19763 ft | 417 kts | 359° |
| 2026-04-21 16:05 | -3.81046 | 55.95736 | 20175 ft | 419 kts | 359° |
| 2026-04-21 16:05 | -3.78102 | 55.95728 | 20581 ft | 421 kts | 359° |
| 2026-04-21 16:05 | -3.75165 | 55.95720 | 20964 ft | 423 kts | 359° |
| 2026-04-21 16:05 | -3.72235 | 55.95712 | 21334 ft | 425 kts | 359° |
| 2026-04-21 16:06 | -3.69302 | 55.95703 | 21687 ft | 427 kts | 359° |
| 2026-04-21 16:06 | -3.66314 | 55.95692 | 22033 ft | 429 kts | 359° |
| 2026-04-21 16:06 | -3.63325 | 55.95683 | 22372 ft | 431 kts | 359° |
| 2026-04-21 16:06 | -3.60325 | 55.95677 | 22699 ft | 432 kts | 359° |
| 2026-04-21 16:07 | -3.57321 | 55.95671 | 23010 ft | 434 kts | 359° |
| 2026-04-21 16:07 | -3.54288 | 55.95664 | 23321 ft | 436 kts | 359° |
| 2026-04-21 16:07 | -3.51265 | 55.95657 | 23592 ft | 438 kts | 359° |
| 2026-04-21 16:07 | -3.48235 | 55.95650 | 23849 ft | 439 kts | 359° |
| 2026-04-21 16:08 | -3.42087 | 55.95642 | 24360 ft | 442 kts | 359° |
| 2026-04-21 16:08 | -3.39031 | 55.95636 | 24611 ft | 443 kts | 359° |
| 2026-04-21 16:08 | -3.35942 | 55.95628 | 24859 ft | 445 kts | 359° |
| 2026-04-21 16:09 | -3.32859 | 55.95617 | 25105 ft | 446 kts | 359° |
| 2026-04-21 16:09 | -3.29750 | 55.95605 | 25346 ft | 447 kts | 359° |
| 2026-04-21 16:09 | -3.26625 | 55.95594 | 25586 ft | 448 kts | 359° |
| 2026-04-21 16:09 | -3.23497 | 55.95585 | 25820 ft | 450 kts | 359° |
| 2026-04-21 16:10 | -3.20398 | 55.95579 | 26049 ft | 451 kts | 359° |
| 2026-04-21 16:10 | -3.17228 | 55.95571 | 26274 ft | 452 kts | 359° |
| 2026-04-21 16:10 | -3.14095 | 55.95564 | 26498 ft | 453 kts | 359° |
| 2026-04-21 16:10 | -3.10951 | 55.95558 | 26740 ft | 454 kts | 359° |
| 2026-04-21 16:11 | -3.07806 | 55.95550 | 27104 ft | 452 kts | 359° |
| 2026-04-21 16:11 | -3.04677 | 55.95543 | 27452 ft | 450 kts | 359° |
| 2026-04-21 16:11 | -3.01553 | 55.95535 | 27787 ft | 449 kts | 359° |
| 2026-04-21 16:11 | -2.98450 | 55.95526 | 28121 ft | 448 kts | 359° |
| 2026-04-21 16:12 | -2.96379 | 55.95518 | 28361 ft | 447 kts | 359° |
| 2026-04-21 16:12 | -2.92222 | 55.95506 | 28817 ft | 446 kts | 359° |
| 2026-04-21 16:12 | -2.89122 | 55.95495 | 29175 ft | 445 kts | 359° |
| 2026-04-21 16:12 | -2.86029 | 55.95486 | 29539 ft | 444 kts | 359° |
| 2026-04-21 16:13 | -2.82942 | 55.95479 | 29905 ft | 443 kts | 359° |
| 2026-04-21 16:13 | -2.79904 | 55.95471 | 30216 ft | 442 kts | 359° |
| 2026-04-21 16:13 | -2.76829 | 55.95464 | 30522 ft | 441 kts | 359° |
| 2026-04-21 16:13 | -2.73763 | 55.95459 | 30824 ft | 441 kts | 359° |
| 2026-04-21 16:14 | -2.70697 | 55.95452 | 31132 ft | 440 kts | 359° |
| 2026-04-21 16:14 | -2.67644 | 55.95447 | 31447 ft | 439 kts | 359° |
| 2026-04-21 16:14 | -2.64589 | 55.95441 | 31767 ft | 438 kts | 359° |
| 2026-04-21 16:14 | -2.61542 | 55.95436 | 32082 ft | 438 kts | 359° |
| 2026-04-21 16:15 | -2.58499 | 55.95431 | 32400 ft | 437 kts | 359° |
| 2026-04-21 16:15 | -2.55500 | 55.95424 | 32717 ft | 436 kts | 359° |
| 2026-04-21 16:15 | -2.52441 | 55.95413 | 33039 ft | 435 kts | 359° |
| 2026-04-21 16:15 | -2.49414 | 55.95401 | 33347 ft | 435 kts | 359° |
| 2026-04-21 16:16 | -2.46422 | 55.95388 | 33637 ft | 434 kts | 359° |
| 2026-04-21 16:16 | -2.43388 | 55.95379 | 33858 ft | 434 kts | 359° |
| 2026-04-21 16:16 | -2.40386 | 55.95372 | 33904 ft | 438 kts | 359° |
| 2026-04-21 16:17 | -2.35997 | 55.95356 | 33905 ft | 446 kts | 359° |
| 2026-04-21 16:17 | -2.29767 | 55.95333 | 33901 ft | 452 kts | 359° |
| 2026-04-21 16:18 | -2.23465 | 55.95325 | 33902 ft | 453 kts | 359° |
| 2026-04-21 16:18 | -2.17222 | 55.94825 | 33902 ft | 452 kts | 348° |
| 2026-04-21 16:19 | -2.11020 | 55.93664 | 33905 ft | 452 kts | 348° |
| 2026-04-21 16:19 | -2.04860 | 55.92521 | 33904 ft | 452 kts | 349° |
| 2026-04-21 16:20 | -1.98673 | 55.91371 | 33904 ft | 453 kts | 349° |
| 2026-04-21 16:20 | -1.92520 | 55.90225 | 33912 ft | 453 kts | 349° |
| 2026-04-21 16:21 | -1.86318 | 55.89075 | 33912 ft | 453 kts | 348° |
| 2026-04-21 16:21 | -1.80119 | 55.87922 | 33911 ft | 453 kts | 348° |
| 2026-04-21 16:22 | -1.73915 | 55.86772 | 33907 ft | 453 kts | 348° |
| 2026-04-21 16:22 | -1.67741 | 55.85626 | 33910 ft | 453 kts | 349° |
| 2026-04-21 16:23 | -1.61543 | 55.84477 | 33908 ft | 453 kts | 349° |
| 2026-04-21 16:23 | -1.55345 | 55.83327 | 33911 ft | 453 kts | 349° |
| 2026-04-21 16:24 | -1.49164 | 55.82179 | 33907 ft | 453 kts | 349° |
| 2026-04-21 16:24 | -1.42999 | 55.81034 | 33911 ft | 453 kts | 349° |
| 2026-04-21 16:25 | -1.36803 | 55.79887 | 33913 ft | 452 kts | 349° |
| 2026-04-21 16:25 | -1.30622 | 55.78741 | 33910 ft | 452 kts | 349° |
| 2026-04-21 16:26 | -1.24476 | 55.77605 | 33911 ft | 451 kts | 349° |
| 2026-04-21 16:26 | -1.18308 | 55.76459 | 33912 ft | 451 kts | 349° |
| 2026-04-21 16:27 | -1.12142 | 55.75310 | 33897 ft | 450 kts | 349° |
| 2026-04-21 16:27 | -1.05968 | 55.74170 | 33896 ft | 450 kts | 349° |
| 2026-04-21 16:28 | -0.99868 | 55.73039 | 33895 ft | 450 kts | 349° |
| 2026-04-21 16:28 | -0.93720 | 55.71898 | 33896 ft | 449 kts | 349° |
| 2026-04-21 16:29 | -0.88589 | 55.70950 | 33896 ft | 450 kts | 349° |
| 2026-04-21 16:29 | -0.81402 | 55.69610 | 33897 ft | 450 kts | 349° |
| 2026-04-21 16:30 | -0.75291 | 55.68477 | 33893 ft | 449 kts | 349° |
| 2026-04-21 16:30 | -0.69133 | 55.67334 | 33898 ft | 449 kts | 349° |
| 2026-04-21 16:31 | -0.62996 | 55.66197 | 33904 ft | 450 kts | 349° |
| 2026-04-21 16:31 | -0.56883 | 55.65072 | 33904 ft | 450 kts | 349° |
| 2026-04-21 16:32 | -0.50704 | 55.63924 | 33905 ft | 450 kts | 349° |
| 2026-04-21 16:32 | -0.44554 | 55.62782 | 33906 ft | 450 kts | 349° |
| 2026-04-21 16:33 | -0.38440 | 55.61640 | 33906 ft | 450 kts | 349° |
| 2026-04-21 16:33 | -0.32278 | 55.60500 | 33911 ft | 450 kts | 349° |
| 2026-04-21 16:34 | -0.26117 | 55.59362 | 33912 ft | 450 kts | 349° |
| 2026-04-21 16:34 | -0.19956 | 55.58217 | 33912 ft | 450 kts | 349° |
| 2026-04-21 16:35 | -0.13802 | 55.57074 | 33910 ft | 450 kts | 349° |
| 2026-04-21 16:35 | -0.07685 | 55.55935 | 33912 ft | 450 kts | 349° |
| 2026-04-21 16:36 | -0.01523 | 55.54790 | 33911 ft | 450 kts | 349° |
| 2026-04-21 16:36 | 0.04614 | 55.53656 | 33929 ft | 448 kts | 349° |
| 2026-04-21 16:37 | 0.10719 | 55.52527 | 33894 ft | 444 kts | 349° |
| 2026-04-21 16:37 | 0.16773 | 55.51408 | 33896 ft | 442 kts | 349° |
| 2026-04-21 16:38 | 0.22774 | 55.50292 | 33898 ft | 441 kts | 349° |
| 2026-04-21 16:38 | 0.28781 | 55.49180 | 33897 ft | 441 kts | 349° |
| 2026-04-21 16:39 | 0.34803 | 55.48066 | 33901 ft | 441 kts | 349° |
| 2026-04-21 16:39 | 0.40848 | 55.46945 | 33901 ft | 441 kts | 349° |
| 2026-04-21 16:40 | 0.46855 | 55.45830 | 33904 ft | 441 kts | 349° |
| 2026-04-21 16:40 | 0.52891 | 55.44709 | 33911 ft | 442 kts | 349° |
| 2026-04-21 16:41 | 0.57910 | 55.43778 | 33909 ft | 442 kts | 349° |
| 2026-04-21 16:41 | 0.64937 | 55.42468 | 33909 ft | 442 kts | 349° |
| 2026-04-21 16:42 | 0.71000 | 55.41341 | 33909 ft | 441 kts | 349° |
| 2026-04-21 16:42 | 0.77043 | 55.40230 | 33909 ft | 442 kts | 349° |
| 2026-04-21 16:43 | 0.83040 | 55.39124 | 33907 ft | 442 kts | 349° |
| 2026-04-21 16:43 | 0.89094 | 55.37997 | 33908 ft | 442 kts | 349° |
| 2026-04-21 16:44 | 0.95150 | 55.36876 | 33907 ft | 442 kts | 349° |
| 2026-04-21 16:44 | 1.01190 | 55.35751 | 33909 ft | 443 kts | 349° |
| 2026-04-21 16:45 | 1.07225 | 55.34628 | 33909 ft | 443 kts | 349° |
| 2026-04-21 16:45 | 1.13268 | 55.33511 | 33910 ft | 443 kts | 349° |
| 2026-04-21 16:46 | 1.19336 | 55.32387 | 33909 ft | 443 kts | 349° |
| 2026-04-21 16:46 | 1.25393 | 55.31261 | 33906 ft | 443 kts | 349° |
| 2026-04-21 16:47 | 1.31454 | 55.30140 | 33897 ft | 443 kts | 349° |
| 2026-04-21 16:47 | 1.37523 | 55.29397 | 33901 ft | 443 kts | 355° |
| 2026-04-21 16:48 | 1.43680 | 55.28953 | 33898 ft | 444 kts | 355° |
| 2026-04-21 16:48 | 1.49835 | 55.28513 | 33901 ft | 444 kts | 355° |
| 2026-04-21 16:49 | 1.55972 | 55.28059 | 33897 ft | 444 kts | 355° |
| 2026-04-21 16:49 | 1.62113 | 55.27603 | 33903 ft | 444 kts | 355° |
| 2026-04-21 16:50 | 1.68308 | 55.27152 | 33905 ft | 445 kts | 355° |
| 2026-04-21 16:50 | 1.74443 | 55.26711 | 33906 ft | 445 kts | 355° |
| 2026-04-21 16:51 | 1.80624 | 55.26260 | 33905 ft | 445 kts | 355° |
| 2026-04-21 16:51 | 1.86786 | 55.25807 | 33909 ft | 445 kts | 355° |
| 2026-04-21 16:52 | 1.92966 | 55.25357 | 33906 ft | 446 kts | 355° |
| 2026-04-21 16:52 | 1.98076 | 55.24986 | 33911 ft | 446 kts | 355° |
| 2026-04-21 16:53 | 2.05286 | 55.24461 | 33907 ft | 446 kts | 355° |
| 2026-04-21 16:53 | 2.11484 | 55.24009 | 33908 ft | 446 kts | 355° |
| 2026-04-21 16:54 | 2.17657 | 55.23559 | 33908 ft | 446 kts | 355° |
| 2026-04-21 16:54 | 2.23826 | 55.23109 | 33903 ft | 446 kts | 355° |
| 2026-04-21 16:55 | 2.29993 | 55.22660 | 33905 ft | 446 kts | 355° |
| 2026-04-21 16:55 | 2.35134 | 55.22284 | 33905 ft | 446 kts | 355° |
| 2026-04-21 16:56 | 2.41323 | 55.21823 | 33905 ft | 446 kts | 355° |
| 2026-04-21 16:56 | 2.47487 | 55.21374 | 33905 ft | 446 kts | 355° |
| 2026-04-21 16:57 | 2.53661 | 55.20931 | 33906 ft | 445 kts | 355° |
| 2026-04-21 16:57 | 2.59830 | 55.20490 | 33890 ft | 445 kts | 355° |
| 2026-04-21 16:58 | 2.66034 | 55.20037 | 33895 ft | 445 kts | 355° |
| 2026-04-21 16:58 | 2.73230 | 55.19499 | 33894 ft | 445 kts | 355° |
| 2026-04-21 16:59 | 2.78359 | 55.19123 | 33897 ft | 445 kts | 355° |
| 2026-04-21 16:59 | 2.84543 | 55.18679 | 33897 ft | 445 kts | 355° |
| 2026-04-21 17:00 | 2.90713 | 55.18231 | 33899 ft | 446 kts | 355° |
| 2026-04-21 17:00 | 2.96881 | 55.17784 | 33897 ft | 446 kts | 355° |
| 2026-04-21 17:01 | 3.03041 | 55.17328 | 33896 ft | 446 kts | 355° |
| 2026-04-21 17:01 | 3.09230 | 55.16873 | 33903 ft | 446 kts | 355° |
| 2026-04-21 17:02 | 3.15402 | 55.16424 | 33906 ft | 446 kts | 355° |
| 2026-04-21 17:02 | 3.21605 | 55.15972 | 33902 ft | 446 kts | 355° |
| 2026-04-21 17:03 | 3.27767 | 55.15527 | 33900 ft | 446 kts | 356° |
| 2026-04-21 17:03 | 3.33916 | 55.15083 | 33900 ft | 445 kts | 355° |
| 2026-04-21 17:04 | 3.40107 | 55.14623 | 33904 ft | 445 kts | 355° |
| 2026-04-21 17:04 | 3.46291 | 55.14165 | 33902 ft | 445 kts | 355° |
| 2026-04-21 17:05 | 3.52434 | 55.13708 | 33904 ft | 446 kts | 356° |
| 2026-04-21 17:05 | 3.58618 | 55.13260 | 33909 ft | 446 kts | 356° |
| 2026-04-21 17:06 | 3.64804 | 55.12813 | 33910 ft | 446 kts | 356° |
| 2026-04-21 17:06 | 3.70994 | 55.12366 | 33908 ft | 446 kts | 356° |
| 2026-04-21 17:07 | 3.76136 | 55.11985 | 33908 ft | 446 kts | 356° |
| 2026-04-21 17:07 | 3.79663 | 55.11725 | 33889 ft | 445 kts | 356° |
| 2026-04-21 17:08 | 3.85838 | 55.11275 | 33891 ft | 445 kts | 356° |
| 2026-04-21 17:08 | 3.92008 | 55.10825 | 33892 ft | 445 kts | 356° |
| 2026-04-21 17:09 | 4.01226 | 55.10149 | 33895 ft | 445 kts | 356° |
| 2026-04-21 17:09 | 4.07398 | 55.09695 | 33895 ft | 445 kts | 356° |
| 2026-04-21 17:10 | 4.13568 | 55.09238 | 33898 ft | 445 kts | 356° |
| 2026-04-21 17:10 | 4.19748 | 55.08782 | 33908 ft | 445 kts | 356° |
| 2026-04-21 17:11 | 4.25887 | 55.08340 | 33904 ft | 445 kts | 356° |